KHCD

Details ICAO KHCD
Name HUTCHINSON MUNI BUTLER FLD
Region United States
Timezone America/Chicago (UTC-5.0)
Plans Departing 4
Arriving 0
Stats Elevation 1,060 ft / 323 m (AMSL)
Location 44.859878° -94.382507°
Runways 1
Magnetic Variation 1.099° E
Sunrise 2018-05-24 10:41:31 UTC / 2018-05-24 05:41:31 Local
Sunset 2018-05-25 01:50:08 UTC / 2018-05-24 20:50:08 Local
Advertisement - Login to hide

Runways

ID Width Length Bearing (true) Bearing (mag) Surface Threshold Offset Overrun Length
15 75 ft / 23 m 4,000 ft / 1,219 m 152.54° 151.44° Asphalt 0 ft / 0 m 0 ft / 0 m
33 75 ft / 23 m 4,000 ft / 1,219 m 332.55° 331.45° Asphalt 0 ft / 0 m 0 ft / 0 m

Map

Weather


0- 5 10 15 20 25 30 35+ Temperature / ° C

Clouds and Precipitation
Forecast for 2018-05-24 12:00 UTC. Updated an hour ago

Ground ~20,000 ft ~40,000 ft Winds

METAR

KHCD 240955Z AUTO 16006KT 10SM CLR 21/18 A3002 RMK AO2 LTG DSNT NW T02120180

TAF

Not found

Frequencies

Recorded 118.52 MHz AWOS 3
Unicom 122.80 MHz CTAF/UNICOM
Warning: Do not use this data for real-world aviation or navigation. No guarantee of current accuracy is given.